createdAt,value
2018-03-31T00:01:17.517Z,4.60
2018-03-31T00:03:44.478Z,4.70
2018-03-31T00:06:11.649Z,4.70
2018-03-31T00:08:38.600Z,4.70
2018-03-31T00:11:06.327Z,4.70
2018-03-31T00:13:33.290Z,4.70
2018-03-31T00:16:01.333Z,4.60
2018-03-31T00:18:28.881Z,4.60
2018-03-31T00:20:55.850Z,4.60
2018-03-31T00:23:23.243Z,4.70
2018-03-31T00:25:50.964Z,4.70
2018-03-31T00:28:18.033Z,4.70
2018-03-31T00:30:48.411Z,4.70
2018-03-31T00:33:15.404Z,4.70
2018-03-31T00:35:42.359Z,4.70
2018-03-31T00:38:09.314Z,4.60
2018-03-31T00:40:37.457Z,4.50
2018-03-31T00:43:04.421Z,4.40
2018-03-31T00:45:31.373Z,4.40
2018-03-31T00:47:59.557Z,4.40
2018-03-31T00:50:27.323Z,4.30
2018-03-31T00:52:55.050Z,4.40
2018-03-31T00:55:22.098Z,4.40
2018-03-31T00:57:49.934Z,4.40
2018-03-31T01:00:18.546Z,4.50
2018-03-31T01:02:45.514Z,4.50
2018-03-31T01:05:13.236Z,4.30
2018-03-31T01:07:40.474Z,4.30
2018-03-31T01:10:07.449Z,4.20
2018-03-31T01:12:34.410Z,4.20
2018-03-31T01:15:01.769Z,4.10
2018-03-31T01:17:28.712Z,4.00
2018-03-31T01:19:56.104Z,4.00
2018-03-31T01:22:23.058Z,4.00
2018-03-31T01:24:50.026Z,4.00
2018-03-31T01:27:17.405Z,4.00
2018-03-31T01:29:44.366Z,3.90
2018-03-31T01:32:12.204Z,3.80
2018-03-31T01:34:39.163Z,3.80
2018-03-31T01:37:06.140Z,3.80
2018-03-31T01:39:34.212Z,3.70
2018-03-31T01:42:01.314Z,3.70
2018-03-31T01:44:28.273Z,3.70
2018-03-31T01:46:55.633Z,3.70
2018-03-31T01:49:23.741Z,3.50
2018-03-31T01:51:50.729Z,3.50
2018-03-31T01:54:19.046Z,3.50
2018-03-31T01:56:47.172Z,3.40
2018-03-31T01:59:14.232Z,3.40
2018-03-31T02:01:41.190Z,3.40
2018-03-31T02:04:08.225Z,3.50
2018-03-31T02:06:35.402Z,3.50
2018-03-31T02:09:03.216Z,3.50
2018-03-31T02:11:31.297Z,3.50
2018-03-31T02:13:58.264Z,3.50
2018-03-31T02:16:25.298Z,3.50
2018-03-31T02:18:53.777Z,3.50
2018-03-31T02:21:20.751Z,3.50
2018-03-31T02:23:48.474Z,3.50
2018-03-31T02:26:15.458Z,3.50
2018-03-31T02:28:43.187Z,3.60
2018-03-31T02:31:10.155Z,3.60
2018-03-31T02:33:37.141Z,3.60
2018-03-31T02:36:04.104Z,3.60
2018-03-31T02:38:31.523Z,3.60
2018-03-31T02:40:59.694Z,3.60
2018-03-31T02:43:27.528Z,3.60
2018-03-31T02:45:55.259Z,3.60
2018-03-31T02:48:22.233Z,3.60
2018-03-31T02:50:49.193Z,3.60
2018-03-31T02:53:16.164Z,3.60
2018-03-31T02:55:43.888Z,3.60
2018-03-31T02:58:10.934Z,3.60
2018-03-31T03:00:37.920Z,3.60
2018-03-31T03:03:05.639Z,3.60
2018-03-31T03:05:32.593Z,3.50
2018-03-31T03:08:00.185Z,3.60
2018-03-31T03:10:28.278Z,3.70
2018-03-31T03:12:55.263Z,3.70
2018-03-31T03:15:22.989Z,3.80
2018-03-31T03:17:49.948Z,3.80
2018-03-31T03:20:16.914Z,3.70
2018-03-31T03:22:43.901Z,3.70
2018-03-31T03:25:11.721Z,3.60
2018-03-31T03:27:38.772Z,3.60
2018-03-31T03:30:05.736Z,3.60
2018-03-31T03:32:32.757Z,3.50
2018-03-31T03:34:59.748Z,3.50
2018-03-31T03:37:27.474Z,3.50
2018-03-31T03:39:55.200Z,3.50
2018-03-31T03:42:22.163Z,3.50
2018-03-31T03:44:49.940Z,3.50
2018-03-31T03:47:17.360Z,3.50
2018-03-31T03:49:44.349Z,3.60
2018-03-31T03:52:11.393Z,3.60
2018-03-31T03:54:38.350Z,3.60
2018-03-31T03:57:06.825Z,3.60
2018-03-31T03:59:33.836Z,3.60
2018-03-31T04:02:00.975Z,3.60
2018-03-31T04:04:27.922Z,3.50
2018-03-31T04:06:54.886Z,3.40
2018-03-31T04:09:22.547Z,3.30
2018-03-31T04:11:49.509Z,3.30
2018-03-31T04:14:16.477Z,3.20
2018-03-31T04:16:43.669Z,3.10
2018-03-31T04:19:10.637Z,3.00
2018-03-31T04:21:37.690Z,3.00
2018-03-31T04:24:04.653Z,3.00
2018-03-31T04:26:31.613Z,3.00
2018-03-31T04:28:59.333Z,2.80
2018-03-31T04:31:26.394Z,2.80
2018-03-31T04:33:54.531Z,2.60
2018-03-31T04:36:21.513Z,2.60
2018-03-31T04:38:48.474Z,2.60
2018-03-31T04:41:15.505Z,2.60
2018-03-31T04:43:42.749Z,2.60
2018-03-31T04:46:09.709Z,2.60
2018-03-31T04:48:36.674Z,2.60
2018-03-31T04:51:04.409Z,2.80
2018-03-31T04:53:31.433Z,2.70
2018-03-31T04:55:58.500Z,2.80
2018-03-31T04:58:25.487Z,2.80
2018-03-31T05:00:53.225Z,2.80
2018-03-31T05:03:20.220Z,2.80
2018-03-31T05:05:47.173Z,2.80
2018-03-31T05:08:14.139Z,2.80
2018-03-31T05:10:41.095Z,2.70
2018-03-31T05:13:09.679Z,2.70
2018-03-31T05:15:38.141Z,2.70
2018-03-31T05:18:05.754Z,2.70
2018-03-31T05:20:33.582Z,2.90
2018-03-31T05:23:00.541Z,2.80
2018-03-31T05:25:27.553Z,2.90
2018-03-31T05:27:54.505Z,3.00
2018-03-31T05:30:21.465Z,3.10
2018-03-31T05:32:48.554Z,3.20
2018-03-31T05:35:17.738Z,3.20
2018-03-31T05:37:45.980Z,3.30
2018-03-31T05:40:12.943Z,3.30
2018-03-31T05:42:41.451Z,3.40
2018-03-31T05:45:08.418Z,3.40
2018-03-31T05:47:35.384Z,3.40
2018-03-31T05:50:02.792Z,3.40
2018-03-31T05:52:30.522Z,3.50
2018-03-31T05:54:58.276Z,3.60
2018-03-31T05:57:25.317Z,3.60
2018-03-31T05:59:52.397Z,3.70
2018-03-31T06:02:19.337Z,3.80
2018-03-31T06:04:46.362Z,3.90
2018-03-31T06:07:13.411Z,4.00
2018-03-31T06:09:40.423Z,4.10
2018-03-31T06:12:07.394Z,4.20
2018-03-31T06:14:35.100Z,4.30
2018-03-31T06:17:02.829Z,4.50
2018-03-31T06:19:30.370Z,4.50
2018-03-31T06:21:57.346Z,4.60
2018-03-31T06:24:24.385Z,4.70
2018-03-31T06:26:52.260Z,4.90
2018-03-31T06:29:22.781Z,5.00
2018-03-31T06:31:50.134Z,5.20
2018-03-31T06:34:17.137Z,5.40
2018-03-31T06:36:44.133Z,5.60
2018-03-31T06:39:11.164Z,5.80
2018-03-31T06:41:38.567Z,6.10
2018-03-31T06:44:06.641Z,7.20
2018-03-31T06:46:34.626Z,8.10
2018-03-31T06:49:01.911Z,8.00
2018-03-31T06:51:28.967Z,8.80
2018-03-31T06:53:55.925Z,9.40
2018-03-31T06:56:22.893Z,9.50
2018-03-31T06:58:50.425Z,9.70
2018-03-31T07:01:17.404Z,10.10
2018-03-31T07:03:44.886Z,10.70
2018-03-31T07:06:11.846Z,11.00
2018-03-31T07:08:38.970Z,10.70
2018-03-31T07:11:05.953Z,10.50
2018-03-31T07:13:32.908Z,10.30
2018-03-31T07:16:00.298Z,10.30
2018-03-31T07:18:27.261Z,10.00
2018-03-31T07:20:54.231Z,10.00
2018-03-31T07:23:21.290Z,10.20
2018-03-31T07:25:48.335Z,10.30
2018-03-31T07:28:15.306Z,10.50
2018-03-31T07:30:43.030Z,10.40
2018-03-31T07:33:10.290Z,10.40
2018-03-31T07:35:37.250Z,10.10
2018-03-31T07:38:04.293Z,10.50
2018-03-31T07:40:31.257Z,11.30
2018-03-31T07:42:59.097Z,12.30
2018-03-31T07:45:26.062Z,12.30
2018-03-31T07:47:53.850Z,12.80
2018-03-31T07:50:21.677Z,12.80
2018-03-31T07:52:49.089Z,13.40
2018-03-31T07:55:16.058Z,13.40
2018-03-31T07:57:43.125Z,12.90
2018-03-31T08:00:10.165Z,12.70
2018-03-31T08:02:37.121Z,13.00
2018-03-31T08:05:08.065Z,13.40
2018-03-31T08:07:35.097Z,13.70
2018-03-31T08:10:02.196Z,14.30
2018-03-31T08:12:29.181Z,14.30
2018-03-31T08:14:56.145Z,14.30
2018-03-31T08:17:23.178Z,14.00
2018-03-31T08:19:50.253Z,13.60
2018-03-31T08:22:17.997Z,13.40
2018-03-31T08:24:44.953Z,13.40
2018-03-31T08:27:11.909Z,13.70
2018-03-31T08:29:39.641Z,13.20
2018-03-31T08:32:07.212Z,13.20
2018-03-31T08:34:34.445Z,13.30
2018-03-31T08:37:01.390Z,13.80
2018-03-31T08:39:28.436Z,13.60
2018-03-31T08:41:55.698Z,13.60
2018-03-31T08:44:23.121Z,13.80
2018-03-31T08:46:50.201Z,14.50
2018-03-31T08:49:17.247Z,15.10
2018-03-31T08:51:44.286Z,15.40
2018-03-31T08:54:11.338Z,15.10
2018-03-31T08:56:38.353Z,14.80
2018-03-31T08:59:05.332Z,14.70
2018-03-31T09:01:32.294Z,14.80
2018-03-31T09:03:59.322Z,15.30
2018-03-31T09:06:26.373Z,15.70
2018-03-31T09:08:54.119Z,16.40
2018-03-31T09:11:21.086Z,16.40
2018-03-31T09:13:48.129Z,17.00
2018-03-31T09:16:15.673Z,17.40
2018-03-31T09:18:43.000Z,17.30
2018-03-31T09:21:09.950Z,17.80
2018-03-31T09:23:36.930Z,17.90
2018-03-31T09:26:04.326Z,18.00
2018-03-31T09:28:31.509Z,17.70
2018-03-31T09:31:00.944Z,17.40
2018-03-31T09:33:28.254Z,17.10
2018-03-31T09:35:55.214Z,17.50
2018-03-31T09:38:24.653Z,17.60
2018-03-31T09:40:52.173Z,18.30
2018-03-31T09:43:19.142Z,18.10
2018-03-31T09:45:46.120Z,17.80
2018-03-31T09:48:13.861Z,17.50
2018-03-31T09:50:41.400Z,17.50
2018-03-31T09:53:08.445Z,17.00
2018-03-31T09:55:35.601Z,16.60
2018-03-31T09:58:02.821Z,16.00
2018-03-31T10:00:35.741Z,16.10
2018-03-31T10:03:02.745Z,16.60
2018-03-31T10:05:29.732Z,16.70
2018-03-31T10:07:56.700Z,16.80
2018-03-31T10:10:24.431Z,16.40
2018-03-31T10:12:51.393Z,16.40
2018-03-31T10:15:18.433Z,16.10
2018-03-31T10:17:45.399Z,15.60
2018-03-31T10:20:13.654Z,15.70
2018-03-31T10:22:40.614Z,15.60
2018-03-31T10:25:07.591Z,16.40
2018-03-31T10:27:34.592Z,17.40
2018-03-31T10:30:02.005Z,18.60
2018-03-31T10:32:28.965Z,20.20
2018-03-31T10:34:55.930Z,21.00
2018-03-31T10:37:22.886Z,20.20
2018-03-31T10:39:49.921Z,19.50
2018-03-31T10:42:17.057Z,18.00
2018-03-31T10:44:44.630Z,17.00
2018-03-31T10:47:11.593Z,17.80
2018-03-31T10:49:38.643Z,18.30
2018-03-31T10:52:05.994Z,17.90
2018-03-31T10:54:32.953Z,16.80
2018-03-31T10:57:00.686Z,17.50
2018-03-31T10:59:28.898Z,17.90
2018-03-31T11:01:56.970Z,18.10
2018-03-31T11:04:25.300Z,18.30
2018-03-31T11:06:52.557Z,18.20
2018-03-31T11:09:19.635Z,18.00
2018-03-31T11:11:47.474Z,18.30
2018-03-31T11:14:15.234Z,18.30
2018-03-31T11:16:42.973Z,18.00
2018-03-31T11:19:10.520Z,17.70
2018-03-31T11:21:37.485Z,18.10
2018-03-31T11:24:04.562Z,18.10
2018-03-31T11:26:31.850Z,18.40
2018-03-31T11:29:00.046Z,19.20
2018-03-31T11:31:27.124Z,19.10
2018-03-31T11:33:54.099Z,19.30
2018-03-31T11:36:21.837Z,19.60
2018-03-31T11:38:48.873Z,19.60
2018-03-31T11:41:15.837Z,20.10
2018-03-31T11:43:42.799Z,19.60
2018-03-31T11:46:10.628Z,19.10
2018-03-31T11:48:37.677Z,19.10
2018-03-31T11:51:07.222Z,18.50
2018-03-31T11:53:35.047Z,17.40
2018-03-31T11:56:03.420Z,17.40
2018-03-31T11:58:30.862Z,17.90
2018-03-31T12:00:57.953Z,18.60
2018-03-31T12:03:28.478Z,18.80
2018-03-31T12:05:55.431Z,19.20
2018-03-31T12:08:23.172Z,19.20
2018-03-31T12:10:50.217Z,19.20
2018-03-31T12:13:17.177Z,19.70
2018-03-31T12:15:44.376Z,20.10
2018-03-31T12:18:11.335Z,19.60
2018-03-31T12:20:38.398Z,18.90
2018-03-31T12:23:05.997Z,18.50
2018-03-31T12:25:33.725Z,17.00
2018-03-31T12:28:01.753Z,16.90
2018-03-31T12:30:28.747Z,16.40
2018-03-31T12:32:55.788Z,15.80
2018-03-31T12:35:23.069Z,15.20
2018-03-31T12:37:50.091Z,15.10
2018-03-31T12:40:17.055Z,15.20
2018-03-31T12:42:44.086Z,15.40
2018-03-31T12:45:11.633Z,15.70
2018-03-31T12:47:39.230Z,16.20
2018-03-31T12:50:07.101Z,17.90
2018-03-31T12:52:34.907Z,19.00
2018-03-31T12:55:02.685Z,19.00
2018-03-31T12:57:30.110Z,19.60
2018-03-31T12:59:57.862Z,19.30
2018-03-31T13:02:24.910Z,19.20
2018-03-31T13:04:52.057Z,19.20
2018-03-31T13:07:19.061Z,19.60
2018-03-31T13:09:46.025Z,20.00
2018-03-31T13:12:13.804Z,20.10
2018-03-31T13:14:41.544Z,20.10
2018-03-31T13:17:08.499Z,20.10
2018-03-31T13:19:36.349Z,19.40
2018-03-31T13:22:03.317Z,19.40
2018-03-31T13:24:32.238Z,19.70
2018-03-31T13:26:59.413Z,19.60
2018-03-31T13:29:26.475Z,19.20
2018-03-31T13:31:53.685Z,19.10
2018-03-31T13:34:20.666Z,18.60
2018-03-31T13:36:47.627Z,18.40
2018-03-31T13:39:14.590Z,18.60
2018-03-31T13:41:42.407Z,18.20
2018-03-31T13:44:09.806Z,18.20
2018-03-31T13:46:37.541Z,18.30
2018-03-31T13:49:06.833Z,18.30
2018-03-31T13:51:35.101Z,19.40
2018-03-31T13:54:03.982Z,20.70
2018-03-31T13:56:31.057Z,22.00
2018-03-31T13:58:58.022Z,22.60
2018-03-31T14:01:25.743Z,20.90
2018-03-31T14:03:52.709Z,20.90
2018-03-31T14:06:20.230Z,21.50
2018-03-31T14:08:47.177Z,21.40
2018-03-31T14:11:14.151Z,21.30
2018-03-31T14:13:41.142Z,21.20
2018-03-31T14:16:08.175Z,19.90
2018-03-31T14:18:35.909Z,17.90
2018-03-31T14:21:02.873Z,17.90
2018-03-31T14:23:29.833Z,18.30
2018-03-31T14:25:57.628Z,20.10
2018-03-31T14:28:24.609Z,20.10
2018-03-31T14:30:51.652Z,20.70
2018-03-31T14:33:18.626Z,20.50
2018-03-31T14:35:46.493Z,22.10
2018-03-31T14:38:14.289Z,22.10
2018-03-31T14:40:41.302Z,22.00
2018-03-31T14:43:08.326Z,21.80
2018-03-31T14:45:39.249Z,21.30
2018-03-31T14:48:06.203Z,20.60
2018-03-31T14:50:33.937Z,19.20
2018-03-31T14:53:00.901Z,19.10
2018-03-31T14:55:27.916Z,18.10
2018-03-31T14:57:54.844Z,17.30
2018-03-31T15:00:22.599Z,16.00
2018-03-31T15:02:50.358Z,15.70
2018-03-31T15:05:17.317Z,15.60
2018-03-31T15:07:45.123Z,15.20
2018-03-31T15:10:12.091Z,15.20
2018-03-31T15:12:39.127Z,15.00
2018-03-31T15:15:06.084Z,15.00
2018-03-31T15:17:37.308Z,15.40
2018-03-31T15:20:04.355Z,15.40
2018-03-31T15:22:33.447Z,16.30
2018-03-31T15:25:00.413Z,17.20
2018-03-31T15:27:27.385Z,17.10
2018-03-31T15:29:55.173Z,16.50
2018-03-31T15:32:22.132Z,16.50
2018-03-31T15:34:49.678Z,16.00
2018-03-31T15:37:17.592Z,16.20
2018-03-31T15:39:44.734Z,16.20
2018-03-31T15:42:11.875Z,16.90
2018-03-31T15:44:39.038Z,18.50
2018-03-31T15:47:06.078Z,19.90
2018-03-31T15:49:34.865Z,21.40
2018-03-31T15:52:02.397Z,22.20
2018-03-31T15:54:29.383Z,22.40
2018-03-31T15:56:56.343Z,20.90
2018-03-31T15:59:24.078Z,17.70
2018-03-31T16:01:51.061Z,17.60
2018-03-31T16:04:18.580Z,17.20
2018-03-31T16:06:45.634Z,16.90
2018-03-31T16:09:12.605Z,17.20
2018-03-31T16:11:40.013Z,18.20
2018-03-31T16:14:09.620Z,19.10
2018-03-31T16:16:36.582Z,19.10
2018-03-31T16:19:03.545Z,19.20
2018-03-31T16:21:30.584Z,19.10
2018-03-31T16:23:57.625Z,18.40
2018-03-31T16:26:24.664Z,17.80
2018-03-31T16:28:52.029Z,17.50
2018-03-31T16:31:19.073Z,16.90
2018-03-31T16:33:46.025Z,16.30
2018-03-31T16:36:12.985Z,15.90
2018-03-31T16:38:42.614Z,15.20
2018-03-31T16:41:10.389Z,15.10
2018-03-31T16:43:37.354Z,15.10
2018-03-31T16:46:04.313Z,15.00
2018-03-31T16:48:31.284Z,15.30
2018-03-31T16:50:58.317Z,15.60
2018-03-31T16:53:25.286Z,16.20
2018-03-31T16:55:53.894Z,16.70
2018-03-31T16:58:21.706Z,16.20
2018-03-31T17:00:48.669Z,16.10
2018-03-31T17:03:15.645Z,15.50
2018-03-31T17:05:42.651Z,14.80
2018-03-31T17:08:09.626Z,14.20
2018-03-31T17:10:37.349Z,13.50
2018-03-31T17:13:04.402Z,13.50
2018-03-31T17:15:31.465Z,13.20
2018-03-31T17:17:58.435Z,13.10
2018-03-31T17:20:26.157Z,12.80
2018-03-31T17:22:53.216Z,12.80
2018-03-31T17:25:20.165Z,12.60
2018-03-31T17:27:47.126Z,12.40
2018-03-31T17:30:14.964Z,12.00
2018-03-31T17:32:41.913Z,12.00
2018-03-31T17:35:08.878Z,11.80
2018-03-31T17:37:37.114Z,11.60
2018-03-31T17:40:04.165Z,11.60
2018-03-31T17:42:31.120Z,11.40
2018-03-31T17:44:58.166Z,11.10
2018-03-31T17:47:25.788Z,11.00
2018-03-31T17:49:52.742Z,10.90
2018-03-31T17:52:19.714Z,10.80
2018-03-31T17:54:46.762Z,10.70
2018-03-31T17:57:13.817Z,10.70
2018-03-31T17:59:40.778Z,10.60
2018-03-31T18:02:08.501Z,10.40
2018-03-31T18:04:35.570Z,10.40
2018-03-31T18:07:02.830Z,10.30
2018-03-31T18:09:30.578Z,10.20
2018-03-31T18:11:57.625Z,10.20
2018-03-31T18:14:24.646Z,10.10
2018-03-31T18:16:51.604Z,10.10
2018-03-31T18:19:18.669Z,10.10
2018-03-31T18:21:45.765Z,10.00
2018-03-31T18:24:14.406Z,9.80
2018-03-31T18:26:41.453Z,9.80
2018-03-31T18:29:08.902Z,9.70
2018-03-31T18:31:35.877Z,9.60
2018-03-31T18:34:03.601Z,9.20
2018-03-31T18:36:30.562Z,9.20
2018-03-31T18:38:57.583Z,9.10
2018-03-31T18:41:25.333Z,9.00
2018-03-31T18:43:52.562Z,9.00
2018-03-31T18:46:20.284Z,9.00
2018-03-31T18:48:47.710Z,9.00
2018-03-31T18:51:14.662Z,9.00
2018-03-31T18:53:41.623Z,9.00
2018-03-31T18:56:09.563Z,9.00
2018-03-31T18:58:36.534Z,9.10
2018-03-31T19:01:03.489Z,9.10
2018-03-31T19:03:30.443Z,9.20
2018-03-31T19:05:57.405Z,9.20
2018-03-31T19:08:25.578Z,9.50
2018-03-31T19:10:53.304Z,9.60
2018-03-31T19:13:20.270Z,9.60
2018-03-31T19:15:48.003Z,9.70
2018-03-31T19:18:15.392Z,9.70
2018-03-31T19:20:42.345Z,9.70
2018-03-31T19:23:10.091Z,9.80
2018-03-31T19:25:38.545Z,9.80
2018-03-31T19:28:05.674Z,9.80
2018-03-31T19:30:38.283Z,9.70
2018-03-31T19:33:05.338Z,9.60
2018-03-31T19:35:37.977Z,9.60
2018-03-31T19:38:05.556Z,9.50
2018-03-31T19:40:32.509Z,9.40
2018-03-31T19:42:59.490Z,9.30
2018-03-31T19:45:27.235Z,9.30
2018-03-31T19:47:54.203Z,9.30
2018-03-31T19:50:22.030Z,9.20
2018-03-31T19:52:48.989Z,9.20
2018-03-31T19:55:15.951Z,9.20
2018-03-31T19:57:43.683Z,9.10
2018-03-31T20:00:10.633Z,9.10
2018-03-31T20:02:37.681Z,9.10
2018-03-31T20:05:04.865Z,9.00
2018-03-31T20:07:33.005Z,8.80
2018-03-31T20:10:00.741Z,8.70
2018-03-31T20:12:29.330Z,8.70
2018-03-31T20:14:56.296Z,8.70
2018-03-31T20:17:23.254Z,8.70
2018-03-31T20:19:51.714Z,8.50
2018-03-31T20:22:18.789Z,8.50
2018-03-31T20:24:46.075Z,8.50
2018-03-31T20:27:13.261Z,8.50
2018-03-31T20:29:40.323Z,8.50
2018-03-31T20:32:07.277Z,8.40
2018-03-31T20:34:34.234Z,8.40
2018-03-31T20:37:02.075Z,8.10
2018-03-31T20:39:29.041Z,8.10
2018-03-31T20:41:57.222Z,7.90
2018-03-31T20:44:24.942Z,7.70
2018-03-31T20:46:51.901Z,7.60
2018-03-31T20:49:18.857Z,7.60
2018-03-31T20:51:45.826Z,7.40
2018-03-31T20:54:13.570Z,7.10
2018-03-31T20:56:40.556Z,7.10
2018-03-31T20:59:07.526Z,7.00
2018-03-31T21:01:34.522Z,6.90
2018-03-31T21:04:02.274Z,7.10
2018-03-31T21:06:29.303Z,7.10
2018-03-31T21:08:56.311Z,7.20
2018-03-31T21:11:23.262Z,7.30
2018-03-31T21:13:52.695Z,7.40
2018-03-31T21:16:20.133Z,7.50
2018-03-31T21:18:47.113Z,7.50
2018-03-31T21:21:14.837Z,7.60
2018-03-31T21:23:42.116Z,7.60
2018-03-31T21:26:09.070Z,7.70
2018-03-31T21:28:36.034Z,7.70
2018-03-31T21:31:04.444Z,7.80
2018-03-31T21:33:31.426Z,7.80
2018-03-31T21:35:58.388Z,7.90
2018-03-31T21:38:25.594Z,7.90
2018-03-31T21:40:52.550Z,8.00
2018-03-31T21:43:19.515Z,8.00
2018-03-31T21:45:46.478Z,8.10
2018-03-31T21:48:13.504Z,8.10
2018-03-31T21:50:41.058Z,8.10
2018-03-31T21:53:10.238Z,8.20
2018-03-31T21:55:37.674Z,8.20
2018-03-31T21:58:04.657Z,8.30
2018-03-31T22:00:32.041Z,8.30
2018-03-31T22:02:59.769Z,8.40
2018-03-31T22:05:26.825Z,8.40
2018-03-31T22:07:54.280Z,8.40
2018-03-31T22:10:21.242Z,8.50
2018-03-31T22:12:48.210Z,8.50
2018-03-31T22:15:21.582Z,8.50
2018-03-31T22:17:48.538Z,8.50
2018-03-31T22:20:16.257Z,8.50
2018-03-31T22:22:43.236Z,8.50
2018-03-31T22:25:10.261Z,8.40
2018-03-31T22:27:37.226Z,8.40
2018-03-31T22:30:04.446Z,8.40
2018-03-31T22:32:31.392Z,8.50
2018-03-31T22:34:58.426Z,8.50
2018-03-31T22:37:25.386Z,8.30
2018-03-31T22:39:52.342Z,8.20
2018-03-31T22:42:19.301Z,8.20
2018-03-31T22:44:46.339Z,8.20
2018-03-31T22:47:13.378Z,8.10
2018-03-31T22:49:41.058Z,8.10
2018-03-31T22:52:08.341Z,8.00
2018-03-31T22:54:35.306Z,8.10
2018-03-31T22:57:02.292Z,8.20
2018-03-31T22:59:29.245Z,8.20
2018-03-31T23:01:56.230Z,8.20
2018-03-31T23:04:23.219Z,8.20
2018-03-31T23:06:50.170Z,8.20
2018-03-31T23:09:17.209Z,8.20
2018-03-31T23:11:44.576Z,8.10
2018-03-31T23:14:11.912Z,8.20
2018-03-31T23:16:38.872Z,8.30
2018-03-31T23:19:08.759Z,8.40
2018-03-31T23:21:35.732Z,8.40
2018-03-31T23:24:02.681Z,8.50
2018-03-31T23:26:32.593Z,8.60
2018-03-31T23:29:00.037Z,8.60
2018-03-31T23:31:28.102Z,8.60
2018-03-31T23:33:55.074Z,8.60
2018-03-31T23:36:22.314Z,8.60
2018-03-31T23:38:49.358Z,8.50
2018-03-31T23:41:16.334Z,8.40
2018-03-31T23:43:44.059Z,8.20
2018-03-31T23:46:11.005Z,8.20
2018-03-31T23:48:38.284Z,8.20
2018-03-31T23:51:05.202Z,8.20
2018-03-31T23:53:32.350Z,8.10
2018-03-31T23:55:59.829Z,8.10
2018-03-31T23:58:27.041Z,8.10
